Time;durP1;ratioP1;P1;durP2;ratioP2;P2;SDS_P1;SDS_P2;PMS_P1;PMS_P2;Temp;Humidity;BMP_temperature;BMP_pressure;BME280_temperature;BME280_humidity;BME280_pressure;Samples;Min_cycle;Max_cycle;Signal;HPM_P1;HPM_P2
2022/04/02 00:01:48;;;;;;;4.85;2.53;;;4.90;67.80;;;;;;5135697;28;20028;-67
2022/04/02 00:04:14;;;;;;;5.47;2.20;;;4.90;67.80;;;;;;5135664;28;20028;-67
2022/04/02 00:06:39;;;;;;;4.03;2.10;;;4.90;67.80;;;;;;5136363;27;20016;-67
2022/04/02 00:09:05;;;;;;;3.95;2.17;;;4.90;68.10;;;;;;5136165;28;20032;-67
2022/04/02 00:11:31;;;;;;;5.97;2.15;;;4.90;68.00;;;;;;5135246;28;20035;-67
2022/04/02 00:13:58;;;;;;;5.10;2.13;;;4.90;68.10;;;;;;5136146;28;20069;-67
2022/04/02 00:16:24;;;;;;;4.97;2.40;;;4.90;68.10;;;;;;5136117;28;20023;-67
2022/04/02 00:18:50;;;;;;;4.28;2.22;;;4.90;68.10;;;;;;5136073;28;20031;-67
2022/04/02 00:21:16;;;;;;;3.88;2.15;;;4.90;67.90;;;;;;5135904;28;20020;-67
2022/04/02 00:23:46;;;;;;;3.88;2.40;;;4.90;67.90;;;;;;5135936;28;20055;-67
2022/04/02 00:26:22;;;;;;;5.28;2.10;;;4.90;67.80;;;;;;5134798;28;20027;-67
2022/04/02 00:28:50;;;;;;;4.60;2.40;;;4.90;67.90;;;;;;5135837;28;20028;-67
2022/04/02 00:31:16;;;;;;;4.68;2.10;;;4.90;67.50;;;;;;5135654;28;20111;-67
2022/04/02 00:33:44;;;;;;;4.47;2.35;;;4.80;67.80;;;;;;5135728;28;20084;-68
2022/04/02 00:36:11;;;;;;;3.47;1.90;;;4.80;67.90;;;;;;5135693;27;20030;-67
2022/04/02 00:38:39;;;;;;;3.25;2.33;;;4.80;67.80;;;;;;5135720;28;20051;-67
2022/04/02 00:41:05;;;;;;;4.13;2.25;;;4.80;67.80;;;;;;5135664;28;20020;-67
2022/04/02 00:43:36;;;;;;;5.93;2.40;;;4.80;68.00;;;;;;5135585;28;20028;-67
2022/04/02 00:46:08;;;;;;;4.47;2.08;;;4.70;66.60;;;;;;5135515;28;20054;-67
2022/04/02 00:48:34;;;;;;;3.45;2.05;;;4.70;67.60;;;;;;5135448;28;20023;-67
2022/04/02 00:51:00;;;;;;;9.52;2.05;;;4.70;68.60;;;;;;5135358;28;20039;-67
2022/04/02 00:53:37;;;;;;;3.55;1.70;;;4.80;67.80;;;;;;5135327;28;20024;-67
2022/04/02 00:56:04;;;;;;;3.95;1.90;;;4.70;67.40;;;;;;5135361;28;20028;-67
2022/04/02 00:58:30;;;;;;;2.70;1.70;;;4.70;66.80;;;;;;5135256;28;20027;-67
2022/04/02 01:00:55;;;;;;;4.60;2.17;;;4.70;66.80;;;;;;5135185;28;20078;-67
2022/04/02 01:03:21;;;;;;;3.60;1.90;;;4.70;66.70;;;;;;5135111;28;20052;-67
2022/04/02 01:05:48;;;;;;;7.57;2.13;;;4.70;66.20;;;;;;5135099;28;20023;-67
2022/04/02 01:08:13;;;;;;;3.22;1.70;;;4.70;65.90;;;;;;5135039;28;20020;-68
2022/04/02 01:10:39;;;;;;;3.53;1.70;;;4.70;66.10;;;;;;5134961;28;20049;-68
2022/04/02 01:13:06;;;;;;;3.63;1.80;;;4.70;65.80;;;;;;5134779;28;20030;-68
2022/04/02 01:15:33;;;;;;;3.35;1.75;;;4.70;65.70;;;;;;5134791;28;20027;-67
2022/04/02 01:17:58;;;;;;;2.25;1.17;;;4.70;65.10;;;;;;5134874;28;20015;-68
2022/04/02 01:20:27;;;;;;;2.20;1.40;;;4.60;63.30;;;;;;5134778;28;20027;-67
2022/04/02 01:22:53;;;;;;;2.80;1.30;;;4.70;63.80;;;;;;5134664;28;20027;-67
2022/04/02 01:25:19;;;;;;;2.28;1.40;;;4.70;63.90;;;;;;5134692;28;20024;-67
2022/04/02 01:27:46;;;;;;;2.00;1.15;;;4.70;63.10;;;;;;5134609;28;20028;-67
2022/04/02 01:30:14;;;;;;;1.95;1.20;;;4.60;61.60;;;;;;5134469;28;20107;-67
2022/04/02 01:32:41;;;;;;;3.50;1.50;;;4.60;62.30;;;;;;5133479;28;20024;-67
2022/04/02 01:35:08;;;;;;;2.33;1.17;;;4.60;62.00;;;;;;5134549;28;20024;-67
2022/04/02 01:37:36;;;;;;;2.47;1.25;;;4.60;61.50;;;;;;5134580;28;20035;-67
2022/04/02 01:40:06;;;;;;;2.80;1.25;;;4.60;61.60;;;;;;5134421;28;20016;-67
2022/04/02 01:42:32;;;;;;;2.75;1.52;;;4.60;61.90;;;;;;5133179;28;20035;-67
2022/04/02 01:44:59;;;;;;;3.20;1.33;;;4.70;62.10;;;;;;5134321;28;20044;-67
2022/04/02 01:47:25;;;;;;;2.85;1.70;;;4.60;61.10;;;;;;5134320;28;20019;-68
2022/04/02 01:49:51;;;;;;;3.40;1.60;;;4.60;61.20;;;;;;5134290;28;20031;-67
2022/04/02 01:52:20;;;;;;;3.70;1.35;;;4.60;61.90;;;;;;5134342;28;20044;-67
2022/04/02 01:54:49;;;;;;;3.63;1.50;;;4.60;62.20;;;;;;5134199;28;20028;-67
2022/04/02 01:57:16;;;;;;;2.30;1.45;;;4.60;62.40;;;;;;5134164;28;20020;-67
2022/04/02 01:59:44;;;;;;;5.28;1.60;;;4.60;62.20;;;;;;5134081;28;20602;-67
2022/04/02 02:02:11;;;;;;;7.00;1.40;;;4.60;62.50;;;;;;5133960;28;20518;-67
2022/04/02 02:04:37;;;;;;;3.70;1.70;;;4.60;63.00;;;;;;5134038;28;20019;-67
2022/04/02 02:07:06;;;;;;;4.57;1.50;;;4.60;63.00;;;;;;5133926;28;20028;-68
2022/04/02 02:09:33;;;;;;;3.83;2.33;;;4.60;63.10;;;;;;5133968;28;20023;-68
2022/04/02 02:12:00;;;;;;;4.85;1.65;;;4.60;62.90;;;;;;5133965;28;20045;-68
2022/04/02 02:14:26;;;;;;;3.80;1.50;;;4.50;62.60;;;;;;5133840;28;20027;-67
2022/04/02 02:16:51;;;;;;;3.75;1.88;;;4.50;62.90;;;;;;5133822;27;20016;-67
2022/04/02 02:19:17;;;;;;;2.80;1.48;;;4.40;62.80;;;;;;5133840;28;20039;-67
2022/04/02 02:21:43;;;;;;;2.95;1.45;;;4.40;62.90;;;;;;5133694;28;20050;-67
2022/04/02 02:24:09;;;;;;;2.90;1.50;;;4.40;62.10;;;;;;5133732;28;20042;-68
2022/04/02 02:26:34;;;;;;;3.92;1.58;;;4.40;63.10;;;;;;5132985;28;20055;-67
2022/04/02 02:29:03;;;;;;;3.13;1.30;;;4.40;63.10;;;;;;5133648;28;20030;-68
2022/04/02 02:31:29;;;;;;;3.13;1.48;;;4.40;62.90;;;;;;5133554;28;20127;-67
2022/04/02 02:36:38;;;;;;;2.30;1.27;;;4.40;62.20;;;;;;5133728;28;20043;-67
2022/04/02 02:39:04;;;;;;;3.17;1.63;;;4.40;62.00;;;;;;5133517;28;20035;-67
2022/04/02 02:41:30;;;;;;;2.53;1.20;;;4.40;62.10;;;;;;5133563;28;20039;-67
2022/04/02 02:43:56;;;;;;;2.08;1.40;;;4.40;62.00;;;;;;5133577;28;20016;-67
2022/04/02 02:46:21;;;;;;;4.50;1.50;;;4.40;61.80;;;;;;5133543;28;20035;-67
2022/04/02 02:48:47;;;;;;;1.80;1.00;;;4.40;61.50;;;;;;5133517;28;20023;-68
2022/04/02 02:51:13;;;;;;;3.88;1.48;;;4.40;61.30;;;;;;5133496;28;20035;-67
2022/04/02 02:53:39;;;;;;;2.25;1.23;;;4.40;61.50;;;;;;5133506;28;20023;-67
2022/04/02 02:56:06;;;;;;;2.35;1.17;;;4.40;61.30;;;;;;5133443;28;20436;-67
2022/04/02 02:58:32;;;;;;;4.40;1.30;;;4.40;61.20;;;;;;5133453;28;20026;-67
2022/04/02 03:00:57;;;;;;;4.40;1.38;;;4.40;61.00;;;;;;5133348;28;20457;-67
2022/04/02 03:03:23;;;;;;;4.35;1.27;;;4.40;61.30;;;;;;5133376;28;20028;-67
2022/04/02 03:05:49;;;;;;;2.78;1.60;;;4.40;61.10;;;;;;5133445;28;20028;-67
2022/04/02 03:08:16;;;;;;;2.95;1.50;;;4.30;60.40;;;;;;5133398;28;20091;-68
2022/04/02 03:10:44;;;;;;;3.17;1.58;;;4.30;60.70;;;;;;5133350;28;20023;-67
2022/04/02 03:13:10;;;;;;;5.60;1.15;;;4.40;61.10;;;;;;5133394;28;20026;-67
2022/04/02 03:15:36;;;;;;;4.13;1.50;;;4.30;60.80;;;;;;5133284;28;20028;-67
2022/04/02 03:18:06;;;;;;;2.33;1.40;;;4.40;60.80;;;;;;5133237;28;20024;-68
2022/04/02 03:20:32;;;;;;;2.67;1.33;;;4.40;60.90;;;;;;5133263;28;20506;-67
2022/04/02 03:22:58;;;;;;;4.65;1.60;;;4.40;61.10;;;;;;5133134;28;20035;-67
2022/04/02 03:25:23;;;;;;;4.20;1.55;;;4.30;60.80;;;;;;5133217;28;20020;-67
2022/04/02 03:27:50;;;;;;;3.03;1.45;;;4.40;61.10;;;;;;5132847;28;20060;-67
2022/04/02 03:30:18;;;;;;;2.20;1.10;;;4.40;61.20;;;;;;5132862;28;20130;-68
2022/04/02 03:32:44;;;;;;;3.30;1.60;;;4.40;61.30;;;;;;5133128;28;20019;-67
2022/04/02 03:35:11;;;;;;;2.85;1.30;;;4.40;61.30;;;;;;5133099;28;20437;-67
2022/04/02 03:37:38;;;;;;;3.97;1.40;;;4.40;61.20;;;;;;5135232;28;20026;-67
2022/04/02 03:40:14;;;;;;;2.75;1.20;;;4.40;61.00;;;;;;5136852;28;20024;-67
2022/04/02 03:42:41;;;;;;;1.77;1.05;;;4.40;60.70;;;;;;5136732;28;20020;-67
2022/04/02 03:45:08;;;;;;;3.53;1.40;;;4.30;61.00;;;;;;5136744;28;20019;-68
2022/04/02 03:47:34;;;;;;;3.40;1.40;;;4.40;61.20;;;;;;5136670;28;20047;-67
2022/04/02 03:49:59;;;;;;;3.33;1.35;;;4.40;61.00;;;;;;5136602;28;20042;-67
2022/04/02 03:52:26;;;;;;;4.80;1.52;;;4.30;60.80;;;;;;5136533;28;20024;-67
2022/04/02 03:54:52;;;;;;;3.47;1.40;;;4.30;61.80;;;;;;5136513;28;20048;-67
2022/04/02 03:57:18;;;;;;;3.15;1.70;;;4.30;61.10;;;;;;5136511;28;20035;-67
2022/04/02 03:59:44;;;;;;;2.47;1.23;;;4.30;61.20;;;;;;5136429;28;20027;-67
2022/04/02 04:02:13;;;;;;;3.10;1.20;;;4.40;61.30;;;;;;5135197;28;20042;-67
2022/04/02 04:04:40;;;;;;;2.95;1.50;;;4.40;61.30;;;;;;5136327;28;20027;-68
2022/04/02 04:07:06;;;;;;;3.28;1.13;;;4.40;61.10;;;;;;5136309;28;20020;-67
2022/04/02 04:09:32;;;;;;;3.92;1.80;;;4.40;61.30;;;;;;5136246;28;20024;-67
2022/04/02 04:11:58;;;;;;;3.67;1.70;;;4.40;61.40;;;;;;5136206;28;20028;-67
2022/04/02 04:14:26;;;;;;;3.78;1.70;;;4.50;61.30;;;;;;5136100;28;20030;-68
2022/04/02 04:16:53;;;;;;;2.85;1.80;;;4.50;61.40;;;;;;5136103;28;20073;-67
2022/04/02 04:19:20;;;;;;;3.05;1.60;;;4.50;61.50;;;;;;5136001;28;20037;-67
2022/04/02 04:21:46;;;;;;;3.28;1.60;;;4.50;61.70;;;;;;5135953;28;20032;-67
2022/04/02 04:24:12;;;;;;;3.55;1.67;;;4.50;61.50;;;;;;5135956;28;20087;-67
2022/04/02 04:26:38;;;;;;;4.88;1.48;;;4.50;61.60;;;;;;5135958;28;20019;-67
2022/04/02 04:29:05;;;;;;;2.72;1.60;;;4.50;61.70;;;;;;5135796;28;20397;-67
2022/04/02 04:31:31;;;;;;;4.68;1.48;;;4.50;61.70;;;;;;5135601;28;20114;-68
2022/04/02 04:33:56;;;;;;;4.80;1.67;;;4.40;61.60;;;;;;5135810;28;20038;-67
2022/04/02 04:36:22;;;;;;;2.72;1.70;;;4.40;61.80;;;;;;5135697;28;20032;-67
2022/04/02 04:38:49;;;;;;;2.75;1.27;;;4.50;62.00;;;;;;5135660;28;20062;-67
2022/04/02 04:41:17;;;;;;;3.22;1.70;;;4.40;61.80;;;;;;5135534;28;20053;-68
2022/04/02 04:43:43;;;;;;;3.30;1.42;;;4.40;62.00;;;;;;5135573;28;20020;-67
2022/04/02 04:46:09;;;;;;;3.45;1.65;;;4.40;62.00;;;;;;5135532;28;20054;-68
2022/04/02 04:48:38;;;;;;;3.90;1.40;;;4.40;61.50;;;;;;5134728;28;20020;-67
2022/04/02 04:51:04;;;;;;;2.90;1.45;;;4.40;61.80;;;;;;5135478;28;20019;-67
2022/04/02 04:53:31;;;;;;;3.08;1.70;;;4.40;62.00;;;;;;5135354;27;20020;-68
2022/04/02 04:55:57;;;;;;;3.47;1.60;;;4.40;62.10;;;;;;5135339;28;20028;-67
2022/04/02 04:58:23;;;;;;;5.13;1.50;;;4.40;62.10;;;;;;5135305;28;20024;-68
2022/04/02 05:00:49;;;;;;;4.22;1.88;;;4.30;62.00;;;;;;5135143;28;20028;-68
2022/04/02 05:03:14;;;;;;;3.00;1.80;;;4.30;61.90;;;;;;5135239;28;20032;-67
2022/04/02 05:05:40;;;;;;;4.57;1.65;;;4.30;62.00;;;;;;5135104;28;20096;-67
2022/04/02 05:08:07;;;;;;;4.20;1.60;;;4.30;61.90;;;;;;5135089;28;20028;-67
2022/04/02 05:10:34;;;;;;;3.08;1.67;;;4.30;61.90;;;;;;5135075;28;20079;-67
2022/04/02 05:13:01;;;;;;;3.38;1.60;;;4.30;62.10;;;;;;5135034;28;20035;-67
2022/04/02 05:15:27;;;;;;;3.03;1.63;;;4.30;62.10;;;;;;5134961;28;20019;-67
2022/04/02 05:17:53;;;;;;;3.33;1.40;;;4.30;62.00;;;;;;5134930;28;20019;-67
2022/04/02 05:20:19;;;;;;;3.97;1.83;;;4.30;61.90;;;;;;5134849;28;20462;-67
2022/04/02 05:22:45;;;;;;;3.45;1.65;;;4.20;61.80;;;;;;5134745;28;20022;-68
2022/04/02 05:25:11;;;;;;;3.97;2.22;;;4.30;63.00;;;;;;5134707;28;20024;-68
2022/04/02 05:27:37;;;;;;;2.38;1.45;;;4.30;62.20;;;;;;5133642;28;20030;-68
2022/04/02 05:30:04;;;;;;;4.18;1.88;;;4.20;61.90;;;;;;5134540;28;20044;-68
2022/04/02 05:32:30;;;;;;;2.95;1.40;;;4.20;61.70;;;;;;5134583;28;20047;-68
2022/04/02 05:34:57;;;;;;;5.38;1.90;;;4.20;61.80;;;;;;5134570;28;20124;-68
2022/04/02 05:37:23;;;;;;;3.33;1.67;;;4.20;62.30;;;;;;5134530;28;20023;-68
2022/04/02 05:39:49;;;;;;;3.30;1.63;;;4.20;62.20;;;;;;5134480;28;20039;-68
2022/04/02 05:42:14;;;;;;;5.28;1.80;;;4.20;62.20;;;;;;5134377;28;20023;-68
2022/04/02 05:44:41;;;;;;;4.75;2.25;;;4.10;61.80;;;;;;5134429;28;20020;-67
2022/04/02 05:47:07;;;;;;;6.07;1.83;;;4.20;62.20;;;;;;5134383;28;20055;-68
2022/04/02 05:49:33;;;;;;;4.88;1.85;;;4.10;61.90;;;;;;5134287;28;20015;-66
2022/04/02 05:51:59;;;;;;;2.58;1.40;;;4.10;61.80;;;;;;5134251;28;20042;-68
2022/04/02 05:54:25;;;;;;;2.75;1.50;;;4.20;62.20;;;;;;5134213;28;20057;-68
2022/04/02 05:56:52;;;;;;;2.25;1.30;;;4.20;62.20;;;;;;5133101;28;20032;-68
2022/04/02 05:59:18;;;;;;;4.80;1.90;;;4.20;61.70;;;;;;5134024;28;20012;-68
2022/04/02 06:01:44;;;;;;;3.58;1.63;;;4.20;61.80;;;;;;5132103;28;20032;-68
2022/04/02 06:04:10;;;;;;;3.85;1.73;;;4.20;62.00;;;;;;5134094;28;20069;-68
2022/04/02 06:06:36;;;;;;;3.55;1.77;;;4.20;62.10;;;;;;5134037;28;20024;-68
2022/04/02 06:09:02;;;;;;;3.85;1.95;;;4.20;61.90;;;;;;5134009;28;20361;-68
2022/04/02 06:11:29;;;;;;;5.22;1.98;;;4.30;62.30;;;;;;5133904;28;20032;-68
2022/04/02 06:13:55;;;;;;;5.90;1.98;;;4.30;62.40;;;;;;5134041;28;20028;-68
2022/04/02 06:16:21;;;;;;;3.58;1.70;;;4.30;62.20;;;;;;5133869;28;20028;-68
2022/04/02 06:18:46;;;;;;;3.63;1.73;;;4.30;62.30;;;;;;5133801;28;20031;-68
2022/04/02 06:21:12;;;;;;;4.68;1.77;;;4.40;62.30;;;;;;5133666;28;20043;-68
2022/04/02 06:23:37;;;;;;;3.08;1.42;;;4.40;62.30;;;;;;5132848;28;20087;-68
2022/04/02 06:26:03;;;;;;;4.32;1.60;;;4.40;62.20;;;;;;5133782;28;20043;-68
2022/04/02 06:28:29;;;;;;;5.68;1.67;;;4.40;62.20;;;;;;5133676;28;20079;-67
2022/04/02 06:30:54;;;;;;;3.25;1.88;;;4.40;62.50;;;;;;5133353;28;20047;-67
2022/04/02 06:33:20;;;;;;;5.50;1.85;;;4.40;63.00;;;;;;5132755;28;20048;-66
2022/04/02 06:35:46;;;;;;;3.05;1.52;;;4.50;62.50;;;;;;5133613;28;20031;-66
2022/04/02 06:38:13;;;;;;;4.10;1.77;;;4.40;62.20;;;;;;5133696;28;20047;-66
2022/04/02 06:40:38;;;;;;;4.38;1.83;;;4.50;62.40;;;;;;5133757;28;20027;-67
2022/04/02 06:43:04;;;;;;;2.90;1.60;;;4.50;62.60;;;;;;5133542;28;20039;-67
2022/04/02 06:45:30;;;;;;;3.47;1.92;;;4.60;62.70;;;;;;5133617;28;20031;-68
2022/04/02 06:47:55;;;;;;;4.82;2.45;;;4.60;62.40;;;;;;5133627;28;20016;-67
2022/04/02 06:50:21;;;;;;;7.47;2.70;;;4.60;62.40;;;;;;5133483;28;20027;-67
2022/04/02 06:52:47;;;;;;;5.13;2.53;;;4.60;62.10;;;;;;5133492;28;20073;-66
2022/04/02 06:55:13;;;;;;;4.32;2.03;;;4.60;62.10;;;;;;5133436;28;20092;-67
2022/04/02 06:57:44;;;;;;;2.70;1.90;;;4.60;62.30;;;;;;5132340;28;20027;-68
2022/04/02 07:00:11;;;;;;;4.90;2.30;;;4.60;62.40;;;;;;5133419;28;20024;-67
2022/04/02 07:02:37;;;;;;;4.05;2.38;;;4.60;62.40;;;;;;5133363;28;20072;-67
2022/04/02 07:05:06;;;;;;;4.65;2.25;;;4.70;62.50;;;;;;5133396;28;20122;-68
2022/04/02 07:07:32;;;;;;;8.95;2.78;;;4.70;62.60;;;;;;5133537;28;20020;-67
2022/04/02 07:09:58;;;;;;;5.60;2.65;;;4.70;62.60;;;;;;5132131;28;20031;-67
2022/04/02 07:12:24;;;;;;;4.88;2.50;;;4.70;62.70;;;;;;5135250;28;20087;-67
2022/04/02 07:14:49;;;;;;;4.65;2.10;;;4.70;62.90;;;;;;5137468;28;20032;-68
2022/04/02 07:17:15;;;;;;;3.42;2.15;;;4.70;62.90;;;;;;5137248;28;20023;-67
2022/04/02 07:19:41;;;;;;;3.50;2.13;;;4.80;63.20;;;;;;5137213;28;20108;-67
2022/04/02 07:22:10;;;;;;;4.30;2.15;;;4.80;63.90;;;;;;5137111;28;20028;-67
2022/04/02 07:24:40;;;;;;;5.00;2.03;;;4.80;63.00;;;;;;5137217;28;20024;-68
2022/04/02 07:27:07;;;;;;;6.75;2.38;;;4.80;63.20;;;;;;5137195;27;20019;-67
2022/04/02 07:29:33;;;;;;;3.50;2.15;;;4.80;63.70;;;;;;5136948;27;20040;-67
2022/04/02 07:32:00;;;;;;;6.40;2.05;;;4.80;63.60;;;;;;5136845;27;20062;-67
2022/04/02 07:34:26;;;;;;;6.47;2.25;;;4.70;63.80;;;;;;5136931;28;20028;-67
2022/04/02 07:37:30;;;;;;;6.53;3.33;;;4.70;64.60;;;;;;5136889;28;20020;-67
2022/04/02 07:40:17;;;;;;;4.00;2.42;;;4.80;64.50;;;;;;5136936;28;20035;-67
2022/04/02 07:43:04;;;;;;;7.07;2.90;;;4.80;64.80;;;;;;5136749;28;20047;-67
2022/04/02 07:45:47;;;;;;;5.68;2.42;;;4.80;65.60;;;;;;5136740;28;20034;-67
2022/04/02 07:48:13;;;;;;;;;;;4.90;65.30;;;;;;5137162;28;20106;-67
2022/04/02 07:50:42;;;;;;;5.15;2.58;;;4.90;65.80;;;;;;5136659;28;19910;-67
2022/04/02 07:53:22;;;;;;;4.70;2.42;;;4.90;65.70;;;;;;5136409;28;20027;-67
2022/04/02 07:55:54;;;;;;;4.05;2.45;;;5.00;66.00;;;;;;5136574;28;20031;-67
2022/04/02 07:58:26;;;;;;;5.10;2.55;;;5.10;67.10;;;;;;5135533;28;20027;-67
2022/04/02 08:00:55;;;;;;;4.20;2.40;;;5.00;65.60;;;;;;5136456;28;20016;-67
2022/04/02 08:03:23;;;;;;;7.25;3.00;;;5.10;65.50;;;;;;5136333;28;20024;-67
2022/04/02 08:05:49;;;;;;;4.38;2.47;;;5.10;65.70;;;;;;5136354;28;20081;-67
2022/04/02 08:08:15;;;;;;;5.70;2.83;;;5.10;66.50;;;;;;5136330;28;20027;-67
2022/04/02 08:10:46;;;;;;;5.03;2.30;;;5.10;66.50;;;;;;5136292;28;20048;-67
2022/04/02 08:13:15;;;;;;;6.45;2.55;;;5.20;67.10;;;;;;5136336;28;20028;-67
2022/04/02 08:15:42;;;;;;;5.57;2.67;;;5.20;66.10;;;;;;5136293;28;20083;-67
2022/04/02 08:18:07;;;;;;;6.80;2.90;;;5.20;65.90;;;;;;5136247;28;20043;-67
2022/04/02 08:20:33;;;;;;;5.90;2.90;;;5.20;66.00;;;;;;5136073;28;20032;-67
2022/04/02 08:23:01;;;;;;;4.78;2.60;;;5.20;65.80;;;;;;5135163;28;20020;-67
2022/04/02 08:25:27;;;;;;;6.50;2.58;;;5.20;66.10;;;;;;5135712;28;20020;-67
2022/04/02 08:28:13;;;;;;;5.97;2.60;;;5.20;66.20;;;;;;5135936;27;20110;-67
2022/04/02 08:30:47;;;;;;;5.57;2.25;;;5.20;66.50;;;;;;5135918;28;20043;-67
2022/04/02 08:33:21;;;;;;;8.48;2.72;;;5.20;65.40;;;;;;5135743;28;20023;-68
2022/04/02 08:36:12;;;;;;;4.47;2.50;;;5.10;65.80;;;;;;5135777;28;20024;-67
2022/04/02 08:39:01;;;;;;;4.85;2.95;;;5.20;65.10;;;;;;5106597;27;20039;-67
2022/04/02 08:41:41;;;;;;;4.70;2.60;;;5.20;65.90;;;;;;5135478;28;20028;-67
2022/04/02 08:44:13;;;;;;;6.20;2.78;;;5.30;66.20;;;;;;5135790;28;20024;-67
2022/04/02 08:47:06;;;;;;;6.93;3.05;;;5.30;66.80;;;;;;5135748;28;20033;-67
2022/04/02 08:49:59;;;;;;;7.20;3.08;;;5.50;67.50;;;;;;5135646;28;20026;-67
2022/04/02 08:53:00;;;;;;;9.15;3.20;;;5.70;66.80;;;;;;5135456;28;20027;-67
2022/04/02 08:55:35;;;;;;;5.78;2.75;;;5.80;66.90;;;;;;5135482;28;20030;-67
2022/04/02 08:58:10;;;;;;;6.95;3.30;;;5.90;66.50;;;;;;5135490;28;20051;-67
2022/04/02 09:00:45;;;;;;;5.32;3.03;;;5.90;65.50;;;;;;5135379;28;20480;-67
2022/04/02 09:03:16;;;;;;;6.60;2.92;;;5.90;65.10;;;;;;5135440;28;20030;-67
2022/04/02 09:06:13;;;;;;;6.22;3.30;;;6.00;65.40;;;;;;5134240;28;20030;-67
2022/04/02 09:09:00;;;;;;;5.90;3.40;;;6.00;64.10;;;;;;5135376;28;20028;-67
2022/04/02 09:11:29;;;;;;;6.00;3.22;;;5.90;64.10;;;;;;5135273;28;20035;-68
2022/04/02 09:14:28;;;;;;;6.30;3.30;;;5.90;64.50;;;;;;5135122;28;20020;-68
2022/04/02 09:17:00;;;;;;;6.05;3.10;;;5.90;64.70;;;;;;5135292;28;20107;-68
2022/04/02 09:19:38;;;;;;;6.88;3.60;;;5.90;65.10;;;;;;5135137;28;20030;-67
2022/04/02 09:22:13;;;;;;;5.95;3.20;;;6.00;65.60;;;;;;5135110;28;20027;-67
2022/04/02 09:25:09;;;;;;;5.90;3.00;;;6.10;65.30;;;;;;5134983;28;20096;-67
2022/04/02 09:27:59;;;;;;;5.90;3.22;;;6.20;63.70;;;;;;5134910;28;20049;-68
2022/04/02 09:30:55;;;;;;;5.78;3.25;;;6.30;64.00;;;;;;5133627;28;20042;-67
2022/04/02 09:33:45;;;;;;;6.50;3.88;;;6.40;64.30;;;;;;5134918;28;20020;-68
2022/04/02 09:36:19;;;;;;;4.82;3.10;;;6.40;63.40;;;;;;5134543;28;20032;-68
2022/04/02 09:39:03;;;;;;;6.15;3.20;;;6.50;63.60;;;;;;5134667;28;20023;-68
2022/04/02 09:41:52;;;;;;;6.20;3.17;;;6.50;63.70;;;;;;5134415;28;20123;-68
2022/04/02 09:45:08;;;;;;;6.45;3.25;;;6.60;62.80;;;;;;5125320;28;20103;-68
2022/04/02 09:47:46;;;;;;;6.72;3.50;;;6.70;63.80;;;;;;5071784;28;20100;-67
2022/04/02 09:50:14;;;;;;;6.85;3.40;;;6.80;63.20;;;;;;5127349;28;20027;-68
2022/04/02 09:52:45;;;;;;;9.13;3.40;;;6.70;62.70;;;;;;5134321;28;20043;-68
2022/04/02 09:55:15;;;;;;;4.93;3.17;;;6.70;62.60;;;;;;5134392;28;20083;-69
2022/04/02 09:58:23;;;;;;;5.65;3.03;;;6.70;62.40;;;;;;5134479;28;20045;-67
2022/04/02 10:01:04;;;;;;;5.93;2.90;;;6.60;61.70;;;;;;5134172;28;20046;-67
2022/04/02 10:03:40;;;;;;;5.93;3.23;;;6.60;62.30;;;;;;5134187;28;20026;-67
2022/04/02 10:06:20;;;;;;;5.47;2.95;;;6.60;62.50;;;;;;5134184;28;20253;-68
2022/04/02 10:09:05;;;;;;;5.70;2.83;;;6.40;61.70;;;;;;5134049;28;20024;-67
2022/04/02 10:11:32;;;;;;;6.90;3.10;;;6.40;61.70;;;;;;5134049;28;20375;-67
2022/04/02 10:13:59;;;;;;;5.82;3.40;;;6.50;62.40;;;;;;5133149;28;20034;-67
2022/04/02 10:16:25;;;;;;;7.13;2.85;;;6.50;63.20;;;;;;5133913;28;20028;-67
2022/04/02 10:18:55;;;;;;;6.43;3.33;;;6.50;61.70;;;;;;5133883;28;20023;-67
2022/04/02 10:21:22;;;;;;;8.13;2.95;;;6.50;61.40;;;;;;5132635;28;20031;-67
2022/04/02 10:24:04;;;;;;;8.05;3.22;;;6.50;62.50;;;;;;5133796;28;20110;-67
2022/04/02 10:26:42;;;;;;;6.32;3.15;;;6.60;61.90;;;;;;5133812;28;20031;-67
2022/04/02 10:29:12;;;;;;;5.78;3.15;;;6.70;61.90;;;;;;5133688;28;20065;-67
2022/04/02 10:32:13;;;;;;;6.63;2.95;;;6.70;61.60;;;;;;5133501;27;20116;-67
2022/04/02 10:34:38;;;;;;;5.55;2.80;;;6.80;60.80;;;;;;5133751;28;20035;-67
2022/04/02 10:37:18;;;;;;;5.22;2.70;;;6.80;60.10;;;;;;5133618;28;20027;-67
2022/04/02 10:39:57;;;;;;;4.93;2.83;;;6.80;59.70;;;;;;5133671;28;20085;-67
2022/04/02 10:42:36;;;;;;;5.38;2.30;;;6.90;59.40;;;;;;5133517;28;20027;-67
2022/04/02 10:45:13;;;;;;;3.80;2.35;;;6.80;57.70;;;;;;5133734;28;20020;-67
2022/04/02 10:47:48;;;;;;;4.05;2.40;;;6.80;57.10;;;;;;5136094;28;20019;-67
2022/04/02 10:50:18;;;;;;;5.28;2.58;;;6.80;57.40;;;;;;5137852;28;20023;-67
2022/04/02 10:52:47;;;;;;;6.25;2.67;;;6.90;58.10;;;;;;5137743;28;20024;-67
2022/04/02 10:55:17;;;;;;;4.78;2.42;;;7.00;58.70;;;;;;5137519;28;20031;-67
2022/04/02 10:57:44;;;;;;;5.78;2.28;;;7.10;57.70;;;;;;5137723;28;20045;-67
2022/04/02 11:00:11;;;;;;;5.18;2.47;;;7.10;56.40;;;;;;5137599;28;20049;-67
2022/04/02 11:02:41;;;;;;;3.65;1.90;;;7.20;54.80;;;;;;5137705;28;20028;-67
2022/04/02 11:05:08;;;;;;;4.25;2.22;;;7.10;53.30;;;;;;5137604;28;20030;-67
2022/04/02 11:07:40;;;;;;;6.60;2.78;;;7.20;54.60;;;;;;5137557;28;20024;-67
2022/04/02 11:10:07;;;;;;;4.40;2.33;;;7.20;52.70;;;;;;5137515;28;20045;-67
2022/04/02 11:12:41;;;;;;;4.55;2.20;;;7.10;53.10;;;;;;5137373;28;20053;-67
2022/04/02 11:15:13;;;;;;;5.47;2.35;;;7.20;54.30;;;;;;5137396;28;20015;-67
2022/04/02 11:17:41;;;;;;;4.88;2.42;;;7.30;56.70;;;;;;5137353;28;20034;-66
2022/04/02 11:20:22;;;;;;;3.53;2.25;;;7.40;55.30;;;;;;5136112;28;20020;-67
2022/04/02 11:23:02;;;;;;;6.28;2.20;;;7.40;54.90;;;;;;5137201;28;20087;-66
2022/04/02 11:25:39;;;;;;;3.28;2.00;;;7.40;54.20;;;;;;5136132;28;20096;-67
2022/04/02 11:28:05;;;;;;;3.58;2.20;;;7.40;52.40;;;;;;5137129;28;20022;-66
2022/04/02 11:30:33;;;;;;;4.80;2.22;;;7.30;51.90;;;;;;5136758;28;20069;-67
2022/04/02 11:33:05;;;;;;;3.03;1.90;;;7.30;51.90;;;;;;5136031;28;20107;-67
2022/04/02 11:35:36;;;;;;;5.13;2.05;;;7.30;52.60;;;;;;5136977;28;20024;-66
2022/04/02 11:38:26;;;;;;;3.13;1.80;;;7.30;52.70;;;;;;5136954;28;20027;-66
2022/04/02 11:41:14;;;;;;;3.97;1.92;;;7.40;53.10;;;;;;5136946;28;20019;-67
2022/04/02 11:43:42;;;;;;;3.25;1.80;;;7.40;51.30;;;;;;5136811;28;20027;-66
2022/04/02 11:46:10;;;;;;;6.05;2.30;;;7.30;48.80;;;;;;5136814;27;20020;-67
2022/04/02 11:48:49;;;;;;;2.83;1.70;;;7.20;49.00;;;;;;5136734;28;20087;-66
2022/04/02 11:51:17;;;;;;;2.60;1.63;;;7.20;50.10;;;;;;5136804;28;20100;-67
2022/04/02 11:53:44;;;;;;;2.30;1.25;;;7.10;49.30;;;;;;5136637;28;20027;-66
2022/04/02 11:56:35;;;;;;;4.60;2.08;;;7.00;48.30;;;;;;5136552;28;20027;-67
2022/04/02 11:59:05;;;;;;;2.30;1.67;;;7.10;48.00;;;;;;5136343;28;20027;-67
2022/04/02 12:01:50;;;;;;;2.58;1.40;;;7.00;48.60;;;;;;5136423;28;20032;-67
2022/04/02 12:04:17;;;;;;;2.63;1.48;;;7.10;48.80;;;;;;5136442;28;20015;-67
2022/04/02 12:06:47;;;;;;;4.32;1.42;;;7.10;49.30;;;;;;5136407;28;20043;-66
2022/04/02 12:09:24;;;;;;;2.72;1.70;;;7.20;48.30;;;;;;5136406;28;20020;-67
2022/04/02 12:11:58;;;;;;;2.40;1.55;;;7.30;49.20;;;;;;5135240;28;20039;-67
2022/04/02 12:14:39;;;;;;;2.58;1.48;;;7.20;49.10;;;;;;5136326;28;20024;-67
2022/04/02 12:17:11;;;;;;;3.85;2.00;;;7.20;48.90;;;;;;5136065;28;20038;-67
2022/04/02 12:19:39;;;;;;;;;;;7.20;49.20;;;;;;5136459;28;20053;-67
2022/04/02 12:22:25;;;;;;;6.45;1.77;;;7.30;49.70;;;;;;5135979;28;19908;-67
2022/04/02 12:25:03;;;;;;;3.40;1.65;;;7.50;50.40;;;;;;5135959;28;20016;-67
2022/04/02 12:27:32;;;;;;;4.95;2.10;;;7.70;50.70;;;;;;5135882;28;20092;-68
2022/04/02 12:30:00;;;;;;;4.40;1.70;;;7.90;51.70;;;;;;5135861;28;20012;-67
2022/04/02 12:32:34;;;;;;;2.80;1.40;;;8.20;50.20;;;;;;5135659;28;20055;-67
2022/04/02 12:35:21;;;;;;;3.33;1.50;;;8.30;48.80;;;;;;5135899;28;20091;-67
2022/04/02 12:37:49;;;;;;;2.65;1.77;;;8.50;44.70;;;;;;5135877;28;20078;-66
2022/04/02 12:40:15;;;;;;;2.42;1.58;;;8.70;46.60;;;;;;5135692;28;20030;-67
2022/04/02 12:42:42;;;;;;;3.25;1.65;;;8.80;46.70;;;;;;5135550;28;20019;-67
2022/04/02 12:45:13;;;;;;;4.00;1.77;;;8.90;47.30;;;;;;5135634;28;20024;-67
2022/04/02 12:47:39;;;;;;;3.35;2.05;;;8.80;44.50;;;;;;5135529;28;20031;-67
2022/04/02 12:50:16;;;;;;;2.70;1.30;;;8.70;46.80;;;;;;5135564;28;20024;-67
2022/04/02 12:52:48;;;;;;;2.83;1.50;;;8.70;43.80;;;;;;5135430;28;20057;-67
2022/04/02 12:55:22;;;;;;;3.28;1.50;;;8.50;40.90;;;;;;5135575;28;20026;-67
2022/04/02 12:58:05;;;;;;;2.55;1.38;;;8.40;42.30;;;;;;5135425;28;20024;-68
2022/04/02 13:00:42;;;;;;;;;;;8.40;43.70;;;;;;5135901;28;20046;-68
2022/04/02 13:03:09;;;;;;;5.63;1.50;;;8.60;44.00;;;;;;5135255;28;19915;-68
2022/04/02 13:05:48;;;;;;;2.85;1.60;;;8.80;46.30;;;;;;5135200;28;20020;-68
2022/04/02 13:08:17;;;;;;;2.85;1.55;;;8.90;44.00;;;;;;5135139;28;20049;-67
2022/04/02 13:10:44;;;;;;;3.65;1.67;;;8.90;44.10;;;;;;5134483;28;20050;-68
2022/04/02 13:13:13;;;;;;;3.63;2.03;;;9.00;45.10;;;;;;5135076;28;20027;-67
2022/04/02 13:15:39;;;;;;;3.95;1.63;;;9.10;45.20;;;;;;5134940;28;20028;-67
2022/04/02 13:20:57;;;;;;;3.42;1.67;;;9.20;45.70;;;;;;5135096;28;20038;-67